Time;durP1;ratioP1;P1;durP2;ratioP2;P2;SDS_P1;SDS_P2;PMS_P1;PMS_P2;Temp;Humidity;BMP_temperature;BMP_pressure;BME280_temperature;BME280_humidity;BME280_pressure;Samples;Min_cycle;Max_cycle;Signal;HPM_P1;HPM_P2
2021/12/08 00:01:33;;;;;;;;;22.75;22.25;;;;;8.13;80.64;100467.63;4994347;28;11583;-72
2021/12/08 00:04:01;;;;;;;;;20.00;20.00;;;;;8.33;80.61;100472.53;4996204;28;11640;-72
2021/12/08 00:06:56;;;;;;;;;20.50;20.50;;;;;8.23;79.45;100472.84;4994821;28;12255;-72
2021/12/08 00:13:05;;;;;;;;;20.75;20.75;;;;;8.30;79.65;100463.00;4996188;28;11584;-74
2021/12/08 00:16:05;;;;;;;;;24.00;24.00;;;;;7.94;80.08;100463.19;4988062;28;11640;-73
2021/12/08 00:19:01;;;;;;;;;29.50;24.25;;;;;7.94;80.12;100465.16;4976134;28;11591;-73
2021/12/08 00:21:42;;;;;;;;;24.75;24.75;;;;;8.03;80.37;100461.28;4983895;28;11573;-73
2021/12/08 00:24:38;;;;;;;;;22.25;22.25;;;;;8.03;80.89;100457.72;4993685;28;11529;-73
2021/12/08 00:27:33;;;;;;;;;22.75;22.50;;;;;8.01;80.39;100460.00;4976557;28;11581;-73
2021/12/08 00:30:29;;;;;;;;;22.00;22.00;;;;;7.97;80.54;100450.72;4975822;28;11509;-73
2021/12/08 00:33:12;;;;;;;;;23.00;22.00;;;;;8.02;79.93;100464.34;4976011;28;11541;-73
2021/12/08 00:36:14;;;;;;;;;20.50;20.50;;;;;7.96;79.81;100463.69;4991837;28;11668;-73
2021/12/08 00:39:11;;;;;;;;;16.00;16.00;;;;;7.81;80.41;100464.94;4993867;28;11651;-73
2021/12/08 00:41:41;;;;;;;;;23.75;20.50;;;;;7.89;79.85;100468.03;4995748;28;11481;-73
2021/12/08 00:44:36;;;;;;;;;20.25;19.50;;;;;7.79;80.12;100461.69;4994822;28;11526;-73
2021/12/08 00:47:32;;;;;;;;;17.50;17.50;;;;;7.85;80.19;100475.31;4991170;28;11495;-73
2021/12/08 00:50:32;;;;;;;;;18.50;18.50;;;;;7.83;80.20;100470.13;4996040;28;11516;-73
2021/12/08 00:53:28;;;;;;;;;19.75;19.75;;;;;7.70;80.44;100473.78;4975607;28;11501;-73
2021/12/08 00:56:23;;;;;;;;;20.50;20.50;;;;;7.70;80.39;100482.06;4983630;28;12258;-73
2021/12/08 00:59:19;;;;;;;;;18.75;18.75;;;;;7.56;81.09;100473.06;5005574;28;11533;-73
2021/12/08 01:02:15;;;;;;;;;20.00;19.75;;;;;7.56;80.67;100471.13;4994770;28;11557;-73
2021/12/08 01:05:14;;;;;;;;;23.25;23.25;;;;;7.31;81.14;100467.13;4992250;28;11568;-73
2021/12/08 01:08:10;;;;;;;;;22.75;21.75;;;;;7.50;80.71;100459.44;4975268;28;11537;-74
2021/12/08 01:11:13;;;;;;;;;18.25;18.25;;;;;7.45;80.99;100462.34;4973738;28;11521;-74
2021/12/08 01:14:09;;;;;;;;;21.50;21.50;;;;;7.47;80.73;100464.78;4975130;28;11517;-74
2021/12/08 01:16:59;;;;;;;;;19.50;18.50;;;;;7.20;81.66;100465.72;4994354;28;11533;-73
2021/12/08 01:19:54;;;;;;;;;16.50;16.00;;;;;7.04;82.93;100453.50;4975528;28;12430;-73
2021/12/08 01:22:37;;;;;;;;;23.75;23.25;;;;;7.32;81.94;100463.22;4985839;28;11493;-73
2021/12/08 01:25:34;;;;;;;;;19.75;19.75;;;;;7.30;82.51;100449.00;4992388;28;11496;-73
2021/12/08 01:28:30;;;;;;;;;17.00;17.00;;;;;7.24;82.64;100440.03;4974881;28;12349;-73
2021/12/08 01:31:04;;;;;;;;;21.25;19.50;;;;;7.24;81.80;100450.25;4975700;28;12333;-73
2021/12/08 01:34:00;;;;;;;;;20.25;20.25;;;;;7.35;81.59;100462.59;4985356;28;11551;-72
2021/12/08 01:36:55;;;;;;;;;21.50;21.25;;;;;7.27;82.32;100454.28;4974670;28;11545;-72
2021/12/08 01:39:51;;;;;;;;;22.00;22.00;;;;;7.29;81.88;100455.63;4974651;28;11605;-73
2021/12/08 01:42:50;;;;;;;;;12.00;12.00;;;;;7.15;83.05;100450.19;4974692;28;11669;-72
2021/12/08 01:46:00;;;;;;;;;17.75;17.75;;;;;7.23;83.02;100445.88;4985909;28;11519;-73
2021/12/08 01:48:56;;;;;;;;;14.25;12.50;;;;;7.06;83.16;100423.75;4977659;28;11584;-72
2021/12/08 01:51:39;;;;;;;;;20.25;19.50;;;;;7.06;83.42;100416.31;4974786;28;12302;-72
2021/12/08 01:54:35;;;;;;;;;16.00;16.00;;;;;7.18;83.78;100429.47;4977950;28;11553;-72
2021/12/08 01:57:30;;;;;;;;;17.00;15.25;;;;;7.19;83.51;100423.66;4993447;28;11577;-72
2021/12/08 02:00:32;;;;;;;;;17.25;17.25;;;;;7.03;84.81;100411.44;4993734;28;11620;-72
2021/12/08 02:03:03;;;;;;;;;31.00;31.00;;;;;7.09;84.41;100395.63;4994186;28;11545;-72
2021/12/08 02:05:32;;;;;;;;;29.75;27.00;;;;;7.17;84.25;100400.34;5008028;28;12483;-72
2021/12/08 02:08:01;;;;;;;;;22.75;22.50;;;;;7.02;84.52;100390.56;4994212;28;11567;-72
2021/12/08 02:10:43;;;;;;;;;19.00;19.00;;;;;6.89;84.58;100394.19;4993783;28;12333;-72
2021/12/08 02:13:12;;;;;;;;;18.50;18.50;;;;;6.99;85.27;100384.91;4993956;28;11597;-73
2021/12/08 02:16:12;;;;;;;;;17.50;17.50;;;;;7.13;84.82;100372.69;4975159;28;11561;-73
2021/12/08 02:19:08;;;;;;;;;19.00;19.00;;;;;7.08;84.69;100375.56;4992677;28;11652;-72
2021/12/08 02:21:39;;;;;;;;;26.00;25.00;;;;;7.09;85.16;100377.19;4993096;28;11555;-73
2021/12/08 02:24:34;;;;;;;;;13.00;13.00;;;;;7.31;83.88;100379.09;4983253;28;11553;-73
2021/12/08 02:27:33;;;;;;;;;15.50;15.50;;;;;7.30;84.70;100377.47;4974476;28;11582;-72
2021/12/08 02:30:14;;;;;;;;;21.25;19.75;;;;;7.12;85.11;100365.53;4974459;28;11562;-73
2021/12/08 02:48:56;;;;;;;;;24.50;24.50;;;;;7.17;85.71;100373.66;4974043;28;12351;-72
2021/12/08 02:51:53;;;;;;;;;17.75;17.75;;;;;7.28;85.06;100379.69;4972283;28;11579;-72
2021/12/08 02:54:51;;;;;;;;;22.75;22.75;;;;;7.36;84.94;100375.38;4974232;28;11627;-72
2021/12/08 02:57:32;;;;;;;;;18.25;18.00;;;;;7.46;84.14;100375.09;4974096;28;12317;-73
2021/12/08 03:00:07;;;;;;;;;0.75;0.00;;;;;7.28;85.36;100367.88;4974067;28;11597;-73
2021/12/08 03:03:04;;;;;;;;;24.75;24.75;;;;;7.40;84.77;100359.84;4972829;28;12289;-73
2021/12/08 03:06:00;;;;;;;;;19.00;19.00;;;;;7.29;85.39;100350.28;4990948;28;11561;-73
2021/12/08 03:08:56;;;;;;;;;15.75;15.75;;;;;7.25;85.56;100345.41;4992808;28;11558;-72
2021/12/08 03:11:39;;;;;;;;;23.25;23.25;;;;;7.27;85.76;100342.31;4996719;28;11728;-73
2021/12/08 03:14:35;;;;;;;;;22.25;22.00;;;;;7.21;85.81;100343.63;4993621;28;11558;-72
2021/12/08 03:17:33;;;;;;;;;27.50;25.50;;;;;7.31;85.58;100337.00;4997362;28;11564;-73
2021/12/08 03:20:14;;;;;;;;;26.00;24.25;;;;;7.10;86.25;100321.06;4997251;28;12303;-72
2021/12/08 03:22:47;;;;;;;;;27.00;26.50;;;;;7.20;86.25;100326.28;4996727;28;11541;-73
2021/12/08 03:25:54;;;;;;;;;26.00;26.00;;;;;7.29;85.59;100325.53;4976890;28;11685;-72
2021/12/08 03:28:59;;;;;;;;;27.00;22.00;;;;;7.04;87.27;100324.25;4975469;28;11595;-75
2021/12/08 03:32:03;;;;;;;;;23.00;23.00;;;;;7.00;87.59;100326.03;4976202;28;11574;-73
2021/12/08 03:34:37;;;;;;;;;30.75;29.75;;;;;6.94;87.88;100319.84;4987340;28;11668;-73
2021/12/08 03:37:07;;;;;;;;;28.75;26.50;;;;;6.91;88.51;100324.06;4995366;28;11572;-72
2021/12/08 03:40:16;;;;;;;;;30.00;30.00;;;;;6.94;88.03;100320.66;4995999;28;12358;-72
2021/12/08 03:43:13;;;;;;;;;19.00;19.00;;;;;7.02;88.20;100316.31;4976617;28;11591;-73
2021/12/08 03:46:12;;;;;;;;;29.25;29.25;;;;;7.22;87.56;100314.97;4993753;28;11551;-73
2021/12/08 03:49:12;;;;;;;;;23.25;23.25;;;;;7.15;87.36;100311.88;4975085;28;11551;-73
2021/12/08 03:52:07;;;;;;;;;25.75;25.75;;;;;7.18;87.98;100309.28;4976559;28;11567;-73
2021/12/08 03:55:08;;;;;;;;;25.25;25.25;;;;;7.11;87.57;100319.13;4977564;28;11586;-73
2021/12/08 03:58:04;;;;;;;;;27.00;26.50;;;;;7.10;88.65;100312.00;4990576;28;11714;-73
2021/12/08 04:00:53;;;;;;;;;28.00;28.00;;;;;7.09;88.60;100302.94;4994494;28;11615;-73
2021/12/08 04:03:50;;;;;;;;;32.00;30.25;;;;;7.04;88.79;100305.00;4995844;28;11566;-72
2021/12/08 04:06:50;;;;;;;;;32.00;31.25;;;;;7.06;89.01;100302.78;4976341;28;11667;-72
2021/12/08 04:09:49;;;;;;;;;33.50;31.00;;;;;7.00;89.47;100290.28;4976442;28;11604;-72
2021/12/08 04:12:49;;;;;;;;;31.50;30.50;;;;;7.11;89.22;100300.69;4975354;28;11781;-73
2021/12/08 04:15:44;;;;;;;;;34.75;33.25;;;;;7.08;89.43;100295.00;4995054;28;11593;-71
2021/12/08 04:18:40;;;;;;;;;28.75;27.25;;;;;7.10;89.11;100301.00;5006150;28;11575;-71
2021/12/08 04:21:40;;;;;;;;;29.50;29.50;;;;;7.10;89.16;100301.00;5005194;28;11553;-70
2021/12/08 04:24:38;;;;;;;;;36.50;36.50;;;;;7.13;89.35;100297.59;4995425;28;11635;-71
2021/12/08 04:27:37;;;;;;;;;30.50;30.50;;;;;7.23;89.14;100297.34;4993128;28;12411;-71
2021/12/08 04:30:47;;;;;;;;;36.50;35.25;;;;;7.22;88.98;100303.97;4995277;28;11823;-72
2021/12/08 04:33:44;;;;;;;;;32.50;32.25;;;;;7.22;89.30;100301.22;4990374;28;12310;-72
2021/12/08 04:36:45;;;;;;;;;56.75;49.50;;;;;7.35;88.61;100286.53;4975765;28;11569;-72
2021/12/08 04:40:02;;;;;;;;;32.75;32.75;;;;;7.37;88.74;100280.72;4975946;28;11575;-71
2021/12/08 04:46:24;;;;;;;;;51.75;43.75;;;;;7.32;89.04;100295.44;4975465;28;11603;-72
2021/12/08 04:52:41;;;;;;;;;34.50;34.50;;;;;7.42;89.38;100299.81;4975337;28;11654;-72
2021/12/08 05:10:20;;;;;;;;;47.50;43.50;;;;;7.62;88.31;100323.19;4982714;28;11565;-72
2021/12/08 05:13:17;;;;;;;;;40.50;39.50;;;;;7.74;87.39;100331.63;4992052;28;11567;-72
2021/12/08 05:16:14;;;;;;;;;48.25;42.75;;;;;7.54;88.60;100335.81;4990803;28;11709;-71
2021/12/08 05:19:14;;;;;;;;;45.25;40.25;;;;;7.84;87.21;100352.56;4974720;28;11596;-72
2021/12/08 05:21:52;;;;;;;;;47.25;42.00;;;;;7.85;87.18;100363.25;4980569;28;12435;-72
2021/12/08 05:24:54;;;;;;;;;46.25;43.00;;;;;7.91;86.50;100361.16;4982513;28;11636;-72
2021/12/08 05:28:08;;;;;;;;;47.50;43.75;;;;;8.02;86.47;100355.00;4994176;28;12389;-73
2021/12/08 05:30:39;;;;;;;;;44.50;40.75;;;;;7.96;86.76;100353.53;4982023;28;11603;-72
2021/12/08 05:33:38;;;;;;;;;45.25;41.25;;;;;8.02;86.37;100349.50;4985584;28;11606;-73
2021/12/08 05:36:23;;;;;;;;;46.00;42.50;;;;;7.95;86.32;100340.09;4988100;28;11591;-71
2021/12/08 05:39:10;;;;;;;;;47.75;41.25;;;;;7.92;86.94;100333.31;4994442;28;12391;-73
2021/12/08 05:41:42;;;;;;;;;47.00;41.00;;;;;7.86;87.52;100344.78;4994115;28;12370;-73
2021/12/08 05:44:40;;;;;;;;;32.75;32.75;;;;;7.93;86.87;100343.19;4990592;28;11598;-72
2021/12/08 05:47:36;;;;;;;;;40.00;38.75;;;;;7.95;87.21;100338.16;4993415;28;11544;-73
2021/12/08 05:50:06;;;;;;;;;39.50;38.00;;;;;8.02;86.84;100335.72;4992788;28;11592;-74
2021/12/08 05:52:34;;;;;;;;;28.25;28.25;;;;;8.07;86.78;100337.53;4993265;28;11584;-73
2021/12/08 05:55:11;;;;;;;;;41.50;40.00;;;;;8.08;86.80;100320.69;4993577;28;11590;-72
2021/12/08 05:57:43;;;;;;;;;50.25;44.00;;;;;7.95;87.46;100318.88;4993944;28;11582;-73
2021/12/08 06:00:21;;;;;;;;;38.00;37.75;;;;;8.07;86.61;100323.75;4993863;28;11589;-73
2021/12/08 06:02:54;;;;;;;;;31.50;31.50;;;;;8.03;86.77;100312.56;4993940;28;11579;-74
2021/12/08 06:05:26;;;;;;;;;33.25;33.25;;;;;8.11;86.37;100321.16;4993901;28;11587;-73
2021/12/08 06:07:55;;;;;;;;;37.75;35.00;;;;;8.27;86.04;100317.59;4993885;28;11582;-74
2021/12/08 06:10:29;;;;;;;;;35.75;35.75;;;;;8.26;85.75;100317.91;4993852;28;11597;-74
2021/12/08 06:12:58;;;;;;;;;34.25;34.25;;;;;8.28;85.91;100326.66;4992717;28;11559;-74
2021/12/08 06:15:28;;;;;;;;;40.25;37.75;;;;;8.39;85.88;100339.03;4993863;28;11573;-73
2021/12/08 06:17:56;;;;;;;;;41.75;37.50;;;;;8.42;85.10;100337.56;4993824;28;11538;-74
2021/12/08 06:20:24;;;;;;;;;39.25;35.00;;;;;8.50;84.94;100343.06;4994059;28;11573;-74
2021/12/08 06:22:56;;;;;;;;;51.25;43.25;;;;;8.67;84.81;100344.22;4992149;28;11599;-74
2021/12/08 06:25:25;;;;;;;;;31.25;30.25;;;;;8.49;84.52;100355.22;4992326;28;11584;-74
2021/12/08 06:27:53;;;;;;;;;40.00;38.50;;;;;8.67;84.68;100360.75;4993848;28;11556;-74
2021/12/08 06:30:27;;;;;;;;;37.50;36.75;;;;;8.72;84.09;100358.63;4992924;28;11650;-74
2021/12/08 06:32:55;;;;;;;;;43.75;40.50;;;;;8.74;84.43;100363.78;4993655;28;11568;-75
2021/12/08 06:35:31;;;;;;;;;42.25;39.75;;;;;8.66;84.42;100367.38;4993250;28;11574;-74
2021/12/08 06:37:59;;;;;;;;;33.75;33.50;;;;;8.73;83.86;100357.47;4992223;28;11587;-74
2021/12/08 06:40:39;;;;;;;;;43.25;40.25;;;;;8.72;83.96;100347.59;4992195;28;11522;-74
2021/12/08 06:43:12;;;;;;;;;43.00;38.50;;;;;8.60;84.32;100353.78;4992435;28;11562;-75
2021/12/08 06:45:44;;;;;;;;;41.75;38.00;;;;;8.72;84.79;100352.28;4997080;28;11600;-74
2021/12/08 06:48:19;;;;;;;;;49.75;43.25;;;;;8.65;84.80;100344.50;4996243;28;11529;-74
2021/12/08 06:50:53;;;;;;;;;36.50;36.25;;;;;8.76;85.14;100348.56;4980610;28;11564;-73
2021/12/08 06:53:22;;;;;;;;;32.50;32.50;;;;;8.76;84.53;100356.03;4997403;28;11551;-72
2021/12/08 06:56:00;;;;;;;;;38.75;36.00;;;;;8.96;84.31;100358.09;4997364;28;11552;-72
2021/12/08 06:58:32;;;;;;;;;33.75;33.75;;;;;8.88;84.51;100353.41;4979964;28;11494;-72
2021/12/08 07:03:51;;;;;;;;;40.25;38.75;;;;;9.06;84.10;100338.44;4997292;28;11628;-72
2021/12/08 07:06:42;;;;;;;;;37.50;36.75;;;;;9.13;83.85;100335.19;4996905;28;11607;-71
2021/12/08 07:09:23;;;;;;;;;46.75;41.00;;;;;9.07;84.16;100326.25;4980487;28;11615;-71
2021/12/08 07:11:53;;;;;;;;;50.50;41.25;;;;;9.00;84.20;100325.97;4997408;28;11644;-73
2021/12/08 07:14:23;;;;;;;;;38.00;36.25;;;;;9.12;83.93;100320.56;4996918;28;12302;-73
2021/12/08 07:16:55;;;;;;;;;57.50;49.25;;;;;9.30;83.65;100324.06;4981380;28;11580;-73
2021/12/08 07:19:36;;;;;;;;;44.00;40.75;;;;;9.45;83.32;100328.22;4996005;28;11601;-73
2021/12/08 07:22:31;;;;;;;;;52.00;43.50;;;;;9.52;82.83;100325.75;4985681;28;12344;-74
2021/12/08 07:25:02;;;;;;;;;40.50;38.75;;;;;9.37;83.15;100316.09;4985949;28;11641;-73
2021/12/08 07:27:37;;;;;;;;;42.50;39.75;;;;;9.32;82.70;100309.94;4996623;28;11556;-73
2021/12/08 07:30:12;;;;;;;;;41.75;39.25;;;;;9.42;82.62;100315.06;4998161;28;11577;-75
2021/12/08 07:33:08;;;;;;;;;43.00;39.25;;;;;9.47;83.21;100331.47;4995204;28;11497;-74
2021/12/08 07:36:10;;;;;;;;;52.00;43.75;;;;;9.43;82.72;100336.84;4994089;28;11561;-74
2021/12/08 07:39:10;;;;;;;;;35.25;34.75;;;;;9.55;82.62;100338.88;4983351;28;12431;-74
2021/12/08 07:42:15;;;;;;;;;34.50;34.50;;;;;9.52;82.34;100334.03;4992958;28;11511;-72
2021/12/08 07:45:17;;;;;;;;;45.00;40.50;;;;;9.52;82.18;100333.25;4996257;28;11518;-73
2021/12/08 07:47:46;;;;;;;;;38.00;36.75;;;;;9.65;82.47;100321.94;4985303;28;11518;-72
2021/12/08 07:50:22;;;;;;;;;43.50;39.75;;;;;9.80;82.01;100316.97;4976761;28;12305;-72
2021/12/08 07:52:53;;;;;;;;;36.75;34.75;;;;;9.60;81.83;100313.06;4996001;28;12452;-72
2021/12/08 07:55:52;;;;;;;;;52.25;42.50;;;;;9.82;81.15;100311.94;4984459;28;11565;-72
2021/12/08 07:58:21;;;;;;;;;34.25;32.25;;;;;9.68;81.62;100314.94;4992535;28;11544;-73
2021/12/08 08:01:21;;;;;;;;;37.50;37.00;;;;;10.05;81.11;100324.31;4993838;28;11552;-73
2021/12/08 08:04:19;;;;;;;;;39.75;38.75;;;;;10.18;80.52;100328.72;4995063;28;11543;-72
2021/12/08 08:07:16;;;;;;;;;26.75;24.00;;;;;10.18;80.68;100327.94;4990198;28;11612;-72
2021/12/08 08:10:15;;;;;;;;;40.50;38.25;;;;;10.60;81.20;100314.94;4976183;28;11496;-73
2021/12/08 08:12:47;;;;;;;;;29.00;29.00;;;;;10.34;79.70;100315.16;4998550;28;12377;-73
2021/12/08 08:15:48;;;;;;;;;38.75;37.00;;;;;10.56;79.66;100316.75;4993625;28;11506;-71
2021/12/08 08:18:21;;;;;;;;;33.25;32.50;;;;;10.52;79.39;100313.06;4979795;28;11532;-73
2021/12/08 08:21:24;;;;;;;;;41.00;37.75;;;;;10.57;79.23;100308.09;4974504;28;11315;-72
2021/12/08 08:23:53;;;;;;;;;32.25;31.25;;;;;10.56;79.10;100300.16;4975852;28;11534;-73
2021/12/08 08:26:23;;;;;;;;;30.00;28.75;;;;;10.38;79.40;100299.50;4976167;28;11522;-73
2021/12/08 08:29:06;;;;;;;;;32.25;30.25;;;;;10.47;80.17;100307.72;4997001;28;11250;-73
2021/12/08 08:31:53;;;;;;;;;86.00;70.75;;;;;10.40;79.72;100308.25;4994443;28;11525;-72
2021/12/08 08:34:54;;;;;;;;;49.25;43.50;;;;;10.16;80.17;100303.41;4976198;28;11599;-72
2021/12/08 08:37:35;;;;;;;;;55.00;43.00;;;;;10.25;80.41;100295.88;4986192;28;11641;-72
2021/12/08 08:40:46;;;;;;;;;28.75;28.75;;;;;10.18;79.90;100306.63;5005059;28;11535;-72
2021/12/08 08:43:15;;;;;;;;;41.25;39.00;;;;;10.24;80.88;100315.56;4993747;28;12452;-72
2021/12/08 08:46:15;;;;;;;;;53.50;45.50;;;;;10.25;80.31;100317.19;4994997;28;11607;-72
2021/12/08 08:49:17;;;;;;;;;44.25;40.75;;;;;10.45;79.51;100312.78;4975837;28;11509;-72
2021/12/08 08:52:45;;;;;;;;;48.75;40.00;;;;;10.22;80.35;100313.16;4975340;28;11689;-72
2021/12/08 08:55:46;;;;;;;;;33.25;32.75;;;;;10.57;79.54;100308.09;4974971;28;11558;-73
2021/12/08 08:58:48;;;;;;;;;35.50;35.50;;;;;10.64;79.14;100290.97;4992881;28;11593;-73
2021/12/08 09:01:47;;;;;;;;;32.00;32.00;;;;;10.63;79.15;100296.84;4995701;28;11529;-73
2021/12/08 09:04:51;;;;;;;;;34.25;33.25;;;;;10.69;79.78;100290.75;4994482;28;11306;-73
2021/12/08 09:07:56;;;;;;;;;44.25;40.25;;;;;10.63;78.88;100292.13;4984466;28;11587;-72
2021/12/08 09:11:12;;;;;;;;;34.25;33.75;;;;;10.58;79.28;100284.03;4974705;28;11530;-72
2021/12/08 09:14:24;;;;;;;;;34.25;31.75;;;;;10.46;79.92;100286.75;4974645;28;11381;-72
2021/12/08 09:17:29;;;;;;;;;29.00;29.00;;;;;10.49;80.32;100288.84;4979486;28;11318;-73
2021/12/08 09:20:32;;;;;;;;;36.00;31.75;;;;;10.81;79.77;100282.50;4987265;28;11238;-72
2021/12/08 09:23:23;;;;;;;;;24.75;23.75;;;;;10.67;79.56;100276.47;4994707;28;11055;-71
2021/12/08 09:26:12;;;;;;;;;24.75;24.50;;;;;10.62;79.79;100276.66;4989583;28;11101;-73
2021/12/08 09:29:18;;;;;;;;;28.50;27.50;;;;;10.79;79.56;100275.69;4983774;28;11888;-72
2021/12/08 09:32:37;;;;;;;;;24.50;24.50;;;;;10.94;79.32;100276.97;4974583;28;11683;-71
2021/12/08 09:35:39;;;;;;;;;29.00;28.50;;;;;10.85;79.45;100283.41;4974534;28;10979;-72
2021/12/08 09:38:41;;;;;;;;;42.25;38.50;;;;;10.94;79.53;100274.22;4993710;28;10921;-71
2021/12/08 09:41:45;;;;;;;;;41.75;39.00;;;;;11.04;79.35;100263.53;4993727;28;11344;-72
2021/12/08 09:44:48;;;;;;;;;35.50;35.25;;;;;11.34;78.90;100272.38;4993761;28;11549;-73
2021/12/08 09:47:17;;;;;;;;;37.25;36.25;;;;;11.59;77.50;100272.41;4987868;28;11264;-72
2021/12/08 09:50:15;;;;;;;;;17.75;17.75;;;;;11.74;76.46;100271.69;4974457;28;11260;-73
2021/12/08 09:53:12;;;;;;;;;31.50;31.50;;;;;11.76;77.19;100269.38;4973990;28;10675;-73
2021/12/08 09:56:03;;;;;;;;;54.50;45.00;;;;;11.40;76.52;100268.25;4975803;28;11022;-72
2021/12/08 09:58:59;;;;;;;;;56.75;45.00;;;;;11.56;76.46;100251.72;4973762;28;11692;-72
2021/12/08 10:01:30;;;;;;;;;26.50;26.50;;;;;11.58;76.80;100251.41;4974290;28;11524;-72
2021/12/08 10:04:03;;;;;;;;;46.25;40.25;;;;;11.32;77.31;100243.44;4972972;28;10846;-72
2021/12/08 10:06:33;;;;;;;;;27.25;27.25;;;;;11.54;76.85;100237.44;4980035;28;11150;-72
2021/12/08 10:09:29;;;;;;;;;51.00;41.75;;;;;11.11;77.85;100235.25;4993413;28;10678;-72
2021/12/08 10:12:26;;;;;;;;;28.00;26.25;;;;;11.48;77.26;100247.13;4974041;28;11502;-72
2021/12/08 10:15:23;;;;;;;;;32.00;31.25;;;;;11.58;77.28;100234.78;4972188;28;10833;-74
2021/12/08 10:18:12;;;;;;;;;27.50;27.50;;;;;11.39;77.43;100232.59;4972734;28;10767;-72
2021/12/08 10:21:08;;;;;;;;;23.50;23.50;;;;;11.34;77.83;100232.81;4972133;28;10881;-72
2021/12/08 10:23:40;;;;;;;;;29.00;29.00;;;;;11.41;77.62;100233.88;4972941;28;10683;-72
2021/12/08 10:26:09;;;;;;;;;29.50;29.50;;;;;11.41;77.28;100239.41;4972856;28;10763;-74
2021/12/08 10:29:06;;;;;;;;;36.25;34.75;;;;;11.38;77.61;100237.34;4973582;28;11026;-72
2021/12/08 10:31:45;;;;;;;;;33.75;30.75;;;;;11.39;77.70;100235.38;4988710;28;11824;-74
2021/12/08 10:37:20;;;;;;;;;28.25;28.25;;;;;11.33;77.75;100217.38;4973974;28;10781;-74
2021/12/08 10:40:16;;;;;;;;;25.50;24.25;;;;;11.27;78.03;100227.06;4973534;28;10848;-73
2021/12/08 10:42:43;;;;;;;;;19.75;19.75;;;;;11.27;77.59;100219.59;4973949;28;10600;-73
2021/12/08 10:45:39;;;;;;;;;20.25;20.25;;;;;11.32;78.14;100232.38;4973384;28;10785;-71
2021/12/08 10:48:42;;;;;;;;;26.00;25.00;;;;;11.36;77.70;100228.56;4992975;28;10739;-73
2021/12/08 10:54:58;;;;;;;;;26.00;26.00;;;;;11.23;78.36;100215.09;4972966;28;10675;-74
2021/12/08 10:57:40;;;;;;;;;21.00;21.00;;;;;11.32;77.89;100213.00;4983199;28;10605;-74
2021/12/08 11:00:08;;;;;;;;;23.25;22.50;;;;;11.24;78.42;100209.19;4993364;28;10638;-75
2021/12/08 11:03:02;;;;;;;;;18.50;18.50;;;;;11.26;77.87;100201.34;4993223;28;10797;-77
2021/12/08 11:05:55;;;;;;;;;19.00;19.00;;;;;11.12;78.22;100209.22;4977741;28;10669;-74
2021/12/08 11:08:28;;;;;;;;;19.25;18.00;;;;;11.34;78.06;100208.72;4973888;28;10441;-75
2021/12/08 11:11:11;;;;;;;;;31.75;30.75;;;;;11.35;78.00;100213.13;4972107;28;10597;-76
2021/12/08 11:13:44;;;;;;;;;35.25;35.25;;;;;11.59;77.07;100212.28;4988451;28;11052;-76
2021/12/08 11:16:37;;;;;;;;;60.00;49.75;;;;;11.56;77.29;100206.63;4990710;28;11096;-75
2021/12/08 11:19:18;;;;;;;;;52.00;44.00;;;;;11.70;76.84;100199.53;4993237;28;11566;-75
2021/12/08 11:21:50;;;;;;;;;41.75;38.75;;;;;11.65;77.02;100193.44;4993001;28;11508;-75
2021/12/08 11:24:32;;;;;;;;;40.75;35.25;;;;;11.48;77.78;100204.78;4991403;28;12104;-75
2021/12/08 11:27:04;;;;;;;;;38.25;35.75;;;;;11.82;76.88;100204.28;4989110;28;11896;-75
2021/12/08 11:29:35;;;;;;;;;68.50;54.25;;;;;11.72;77.06;100210.28;4972169;28;11098;-75
2021/12/08 11:32:07;;;;;;;;;58.00;47.25;;;;;11.77;77.52;100207.25;4997156;28;11574;-76
2021/12/08 11:34:41;;;;;;;;;59.50;48.25;;;;;11.90;76.80;100194.22;4996223;28;11525;-75
2021/12/08 11:37:17;;;;;;;;;61.50;50.25;;;;;11.61;77.76;100207.19;4975991;28;11521;-75
2021/12/08 11:39:49;;;;;;;;;70.50;54.25;;;;;11.59;78.06;100209.50;4987079;28;11561;-76
2021/12/08 11:42:31;;;;;;;;;60.50;49.00;;;;;11.64;78.21;100213.97;4979574;28;11647;-73
2021/12/08 11:45:09;;;;;;;;;68.25;53.75;;;;;11.60;78.29;100208.34;4996863;28;11516;-76
2021/12/08 11:47:37;;;;;;;;;66.75;53.75;;;;;11.86;77.45;100210.72;4994097;28;11537;-76
2021/12/08 11:50:15;;;;;;;;;69.00;54.25;;;;;11.82;77.51;100207.06;4995846;28;12415;-76
2021/12/08 11:52:43;;;;;;;;;63.00;48.25;;;;;11.65;78.27;100201.75;4994374;28;12360;-75
2021/12/08 11:55:14;;;;;;;;;74.00;54.75;;;;;11.72;78.38;100193.66;4995900;28;11538;-75
2021/12/08 11:57:46;;;;;;;;;66.25;50.50;;;;;11.75;78.57;100194.94;4993256;28;11536;-75
2021/12/08 12:00:19;;;;;;;;;30.50;27.25;;;;;11.76;78.58;100191.81;4983643;28;12255;-75
2021/12/08 12:03:08;;;;;;;;;66.25;50.00;;;;;11.82;78.25;100186.88;4987680;28;11521;-75
2021/12/08 12:06:04;;;;;;;;;58.25;49.00;;;;;12.09;77.79;100191.59;4976239;28;12428;-75
2021/12/08 12:09:01;;;;;;;;;58.50;47.25;;;;;12.19;77.50;100204.13;4990169;28;12317;-75
2021/12/08 12:11:52;;;;;;;;;35.00;34.25;;;;;12.27;76.79;100202.38;4995754;28;11540;-75
2021/12/08 12:14:22;;;;;;;;;34.75;32.75;;;;;12.36;76.49;100198.28;4983317;28;10713;-75
2021/12/08 12:17:20;;;;;;;;;33.75;30.75;;;;;12.42;76.36;100191.34;4991416;28;10266;-75
2021/12/08 12:20:06;;;;;;;;;41.50;37.50;;;;;12.21;77.13;100191.56;4987109;28;10688;-74
2021/12/08 12:23:08;;;;;;;;;40.00;35.75;;;;;12.22;76.97;100197.91;4995256;28;10856;-76
2021/12/08 12:26:22;;;;;;;;;27.00;24.00;;;;;12.45;76.30;100193.38;4994690;28;10596;-74
2021/12/08 12:29:38;;;;;;;;;28.75;27.25;;;;;12.20;76.81;100200.22;4993879;28;10372;-74
2021/12/08 12:32:17;;;;;;;;;18.75;17.50;;;;;12.10;77.08;100206.25;4962012;28;10331;-73
2021/12/08 12:34:45;;;;;;;;;15.75;15.75;;;;;12.13;77.16;100200.81;4981989;28;10149;-75
2021/12/08 12:37:13;;;;;;;;;18.50;18.50;;;;;12.08;77.54;100203.03;4984515;28;10210;-74
2021/12/08 12:39:56;;;;;;;;;14.25;14.25;;;;;12.06;77.17;100203.41;4974584;28;10283;-75
2021/12/08 12:42:26;;;;;;;;;11.25;11.25;;;;;11.99;77.14;100205.16;4974012;28;10128;-75
2021/12/08 12:45:02;;;;;;;;;15.00;15.00;;;;;12.02;77.32;100196.94;4975362;28;10707;-75
2021/12/08 12:47:31;;;;;;;;;15.75;15.75;;;;;12.22;76.17;100203.44;4974082;28;10108;-75
2021/12/08 12:50:22;;;;;;;;;15.75;14.75;;;;;11.88;77.86;100200.09;4978325;28;10374;-75
2021/12/08 12:52:53;;;;;;;;;17.75;17.50;;;;;11.69;78.72;100206.25;5006138;28;10250;-74
2021/12/08 12:55:31;;;;;;;;;17.25;17.25;;;;;11.68;78.45;100201.88;4992167;28;10384;-74
2021/12/08 12:57:59;;;;;;;;;23.50;18.50;;;;;11.72;78.59;100204.72;4984293;28;11076;-74
2021/12/08 13:00:38;;;;;;;;;22.00;22.00;;;;;11.58;79.09;100194.06;4987541;28;10443;-77
2021/12/08 13:03:07;;;;;;;;;20.50;20.50;;;;;11.58;79.44;100201.56;4986725;28;10688;-76
2021/12/08 13:06:05;;;;;;;;;19.25;19.25;;;;;11.49;79.43;100195.31;4981053;28;10645;-76
2021/12/08 13:09:01;;;;;;;;;31.25;27.00;;;;;11.58;79.35;100198.78;4980714;28;10512;-76
2021/12/08 13:12:21;;;;;;;;;60.75;50.00;;;;;11.49;79.75;100201.66;4995430;28;11545;-75
2021/12/08 13:15:21;;;;;;;;;36.25;32.75;;;;;11.48;79.88;100208.34;4980498;28;11635;-74
2021/12/08 13:18:19;;;;;;;;;62.00;51.75;;;;;11.44;80.14;100215.75;4975626;28;11516;-73
2021/12/08 13:21:14;;;;;;;;;67.00;53.00;;;;;11.61;79.63;100228.53;4992872;28;11504;-73
2021/12/08 13:24:33;;;;;;;;;64.50;52.25;;;;;11.48;80.07;100238.81;4993455;28;11609;-73
2021/12/08 13:27:30;;;;;;;;;64.75;52.50;;;;;11.53;80.35;100240.56;4993039;28;11519;-69
2021/12/08 13:30:27;;;;;;;;;49.75;41.00;;;;;11.39;80.52;100243.69;4991582;28;11541;-69
2021/12/08 13:33:29;;;;;;;;;49.50;43.50;;;;;11.34;80.93;100246.66;4992331;28;11507;-69
2021/12/08 13:36:33;;;;;;;;;26.50;22.75;;;;;11.33;80.53;100234.78;4992434;28;11486;-71
2021/12/08 13:39:30;;;;;;;;;30.50;30.50;;;;;11.24;81.23;100245.19;4990467;28;10860;-70